createdAt,value
2023-04-18T03:43:16.880Z,6.00
2023-04-18T03:48:34.147Z,5.20
2023-04-18T03:53:52.825Z,6.82
2023-04-18T03:59:07.858Z,12.60
2023-04-18T04:04:26.964Z,11.23
2023-04-18T04:09:41.740Z,8.65
2023-04-18T04:14:57.854Z,8.55
2023-04-18T04:20:14.859Z,8.13
2023-04-18T04:25:29.846Z,8.52
2023-04-18T04:30:51.241Z,7.88
2023-04-18T04:36:06.854Z,7.97
2023-04-18T04:41:21.860Z,7.57
2023-04-18T04:46:36.914Z,7.15
2023-04-18T04:51:59.053Z,8.37
2023-04-18T04:57:15.171Z,6.28
2023-04-18T05:02:31.058Z,8.82
2023-04-18T05:07:46.878Z,8.38
2023-04-18T05:13:01.900Z,8.23
2023-04-18T05:18:16.852Z,8.10
2023-04-18T05:23:31.852Z,7.88
2023-04-18T05:28:46.960Z,7.53
2023-04-18T05:34:01.884Z,7.15
2023-04-18T05:39:16.904Z,7.45
2023-04-18T05:44:31.889Z,6.97
2023-04-18T05:49:46.620Z,7.10
2023-04-18T05:55:01.876Z,6.75
2023-04-18T06:00:17.025Z,8.10
2023-04-18T06:05:32.200Z,7.88
2023-04-18T06:10:47.849Z,6.30
2023-04-18T06:16:02.938Z,7.90
2023-04-18T06:21:17.862Z,8.35
2023-04-18T06:26:32.865Z,6.82
2023-04-18T06:31:47.957Z,7.22
2023-04-18T06:37:02.844Z,7.25
2023-04-18T06:42:19.115Z,6.20
2023-04-18T06:47:35.904Z,6.50
2023-04-18T06:52:50.928Z,6.05
2023-04-18T06:58:06.141Z,5.90
2023-04-18T07:03:22.005Z,5.93
2023-04-18T07:08:36.967Z,5.15
2023-04-18T07:13:51.887Z,5.80
2023-04-18T07:19:06.894Z,5.05
2023-04-18T07:24:21.888Z,6.50
2023-04-18T07:29:36.850Z,5.72
2023-04-18T07:34:52.190Z,5.07
2023-04-18T07:40:07.898Z,5.85
2023-04-18T07:45:22.841Z,4.70
2023-04-18T07:50:38.183Z,4.78
2023-04-18T07:55:54.627Z,4.85
2023-04-18T08:01:11.303Z,5.28
2023-04-18T08:06:26.905Z,4.47
2023-04-18T08:11:41.879Z,4.57
2023-04-18T08:16:57.241Z,4.22
2023-04-18T08:22:12.876Z,4.43
2023-04-18T08:27:27.903Z,3.80
2023-04-18T08:32:42.796Z,3.67
2023-04-18T08:37:57.942Z,3.97
2023-04-18T08:43:12.930Z,3.72
2023-04-18T08:48:27.887Z,3.88
2023-04-18T08:53:42.867Z,3.97
2023-04-18T08:58:58.148Z,3.42
2023-04-18T09:04:13.909Z,3.33
2023-04-18T09:09:28.893Z,3.40
2023-04-18T09:14:43.610Z,3.38
2023-04-18T09:19:58.891Z,3.72
2023-04-18T09:25:13.923Z,3.13
2023-04-18T09:30:28.856Z,3.38
2023-04-18T09:35:43.918Z,2.40
2023-04-18T09:40:58.886Z,2.67
2023-04-18T09:46:14.267Z,2.95
2023-04-18T09:51:30.221Z,2.90
2023-04-18T09:56:45.934Z,2.42
2023-04-18T10:02:00.980Z,2.75
2023-04-18T10:07:15.879Z,2.10
2023-04-18T10:12:30.691Z,2.60
2023-04-18T10:17:56.223Z,2.78
2023-04-18T10:23:17.925Z,2.88
2023-04-18T10:28:32.857Z,2.63
2023-04-18T10:34:00.662Z,2.45
2023-04-18T10:35:41.268Z,2.30
2023-04-18T10:38:11.419Z,2.15
2023-04-18T10:40:40.138Z,2.55
2023-04-18T10:43:10.492Z,2.30
2023-04-18T10:44:35.872Z,3.65
2023-04-18T10:45:40.710Z,2.13
2023-04-18T10:48:10.566Z,2.10
2023-04-18T10:49:50.906Z,2.95
2023-04-18T10:50:41.038Z,1.92
2023-04-18T10:53:09.994Z,2.30
2023-04-18T10:55:05.886Z,2.75
2023-04-18T11:00:20.931Z,2.17
2023-04-18T11:05:35.889Z,2.60
2023-04-18T11:10:51.910Z,3.33
2023-04-18T11:16:07.021Z,2.63
2023-04-18T11:21:21.889Z,2.95
2023-04-18T11:26:37.269Z,2.75
2023-04-18T11:31:53.327Z,3.45
2023-04-18T11:37:09.868Z,3.22
2023-04-18T11:42:24.920Z,3.08
2023-04-18T11:47:39.955Z,3.13
2023-04-18T11:52:54.770Z,3.53
2023-04-18T11:58:10.190Z,3.53
2023-04-18T12:03:26.016Z,3.20
2023-04-18T12:08:42.292Z,3.67
2023-04-18T12:13:58.005Z,2.92
2023-04-18T12:19:12.881Z,4.20
2023-04-18T12:24:27.691Z,3.75
2023-04-18T12:29:42.946Z,3.55
2023-04-18T12:34:57.637Z,3.63
2023-04-18T12:40:12.939Z,3.13
2023-04-18T12:45:27.864Z,3.40
2023-04-18T12:50:42.632Z,2.95
2023-04-18T12:55:57.923Z,3.15
2023-04-18T13:01:12.985Z,3.72
2023-04-18T13:06:27.945Z,4.32
2023-04-18T13:11:42.978Z,4.13
2023-04-18T13:16:57.984Z,5.70
2023-04-18T13:22:12.958Z,4.63
2023-04-18T13:27:27.898Z,5.30
2023-04-18T13:32:43.095Z,6.20
2023-04-18T13:37:58.916Z,5.18
2023-04-18T13:43:14.220Z,5.88
2023-04-18T13:48:29.920Z,5.47
2023-04-18T13:53:44.931Z,4.90
2023-04-18T13:58:59.659Z,5.50
2023-04-18T14:04:15.327Z,4.25
2023-04-18T14:09:30.913Z,5.13
2023-04-18T14:15:53.373Z,3.40
2023-04-18T14:18:23.678Z,3.25
2023-04-18T14:20:54.209Z,3.60
